sensor_id;sensor_type;location;lat;lon;timestamp;temperature;humidity
24664;DHT22;12791;50.992;13.788;2022-10-16T03:02:01;14.20;99.90
24664;DHT22;12791;50.992;13.788;2022-10-16T03:04:27;14.30;99.90
24664;DHT22;12791;50.992;13.788;2022-10-16T03:06:54;14.30;99.90
24664;DHT22;12791;50.992;13.788;2022-10-16T03:09:21;14.30;99.90
24664;DHT22;12791;50.992;13.788;2022-10-16T03:11:47;14.20;99.90
24664;DHT22;12791;50.992;13.788;2022-10-16T03:14:14;14.20;99.90
24664;DHT22;12791;50.992;13.788;2022-10-16T03:16:41;14.20;99.90
24664;DHT22;12791;50.992;13.788;2022-10-16T03:19:09;14.20;99.90
24664;DHT22;12791;50.992;13.788;2022-10-16T03:21:36;14.20;99.90
24664;DHT22;12791;50.992;13.788;2022-10-16T03:24:03;14.20;99.90
24664;DHT22;12791;50.992;13.788;2022-10-16T03:26:30;14.20;99.90
24664;DHT22;12791;50.992;13.788;2022-10-16T03:28:56;14.20;99.90
24664;DHT22;12791;50.992;13.788;2022-10-16T03:31:23;14.20;99.90
24664;DHT22;12791;50.992;13.788;2022-10-16T03:33:50;14.30;99.90
24664;DHT22;12791;50.992;13.788;2022-10-16T03:36:18;14.30;99.90
24664;DHT22;12791;50.992;13.788;2022-10-16T03:38:44;14.30;99.90
24664;DHT22;12791;50.992;13.788;2022-10-16T03:41:11;14.30;99.90
24664;DHT22;12791;50.992;13.788;2022-10-16T03:43:38;14.30;99.90
24664;DHT22;12791;50.992;13.788;2022-10-16T03:46:05;14.30;99.90
24664;DHT22;12791;50.992;13.788;2022-10-16T03:48:31;14.30;99.90
24664;DHT22;12791;50.992;13.788;2022-10-16T03:50:59;14.30;99.90
24664;DHT22;12791;50.992;13.788;2022-10-16T03:53:27;14.30;99.90
24664;DHT22;12791;50.992;13.788;2022-10-16T03:55:53;14.30;99.90
24664;DHT22;12791;50.992;13.788;2022-10-16T03:58:20;14.30;99.90
24664;DHT22;12791;50.992;13.788;2022-10-16T04:00:47;14.30;99.90
24664;DHT22;12791;50.992;13.788;2022-10-16T04:03:14;14.30;99.90
24664;DHT22;12791;50.992;13.788;2022-10-16T04:05:41;14.30;99.90
24664;DHT22;12791;50.992;13.788;2022-10-16T04:08:07;14.30;99.90
24664;DHT22;12791;50.992;13.788;2022-10-16T04:10:35;14.20;99.90
24664;DHT22;12791;50.992;13.788;2022-10-16T04:13:02;14.20;99.90
24664;DHT22;12791;50.992;13.788;2022-10-16T04:15:29;14.20;99.90
24664;DHT22;12791;50.992;13.788;2022-10-16T04:17:55;14.20;99.90
24664;DHT22;12791;50.992;13.788;2022-10-16T04:20:22;14.20;99.90
24664;DHT22;12791;50.992;13.788;2022-10-16T04:22:49;14.20;99.90
24664;DHT22;12791;50.992;13.788;2022-10-16T04:25:15;14.20;99.90
24664;DHT22;12791;50.992;13.788;2022-10-16T04:27:43;14.20;99.90
24664;DHT22;12791;50.992;13.788;2022-10-16T04:30:10;14.20;99.90
24664;DHT22;12791;50.992;13.788;2022-10-16T04:32:37;14.20;99.90
24664;DHT22;12791;50.992;13.788;2022-10-16T04:35:04;14.20;99.90
24664;DHT22;12791;50.992;13.788;2022-10-16T04:37:31;14.20;99.90
24664;DHT22;12791;50.992;13.788;2022-10-16T04:39:58;14.20;99.90
24664;DHT22;12791;50.992;13.788;2022-10-16T04:42:25;14.20;99.90
24664;DHT22;12791;50.992;13.788;2022-10-16T04:44:53;14.20;99.90
24664;DHT22;12791;50.992;13.788;2022-10-16T04:47:19;14.20;99.90
24664;DHT22;12791;50.992;13.788;2022-10-16T04:49:46;14.20;99.90
24664;DHT22;12791;50.992;13.788;2022-10-16T04:52:13;14.10;99.90
24664;DHT22;12791;50.992;13.788;2022-10-16T04:54:39;14.10;99.90
24664;DHT22;12791;50.992;13.788;2022-10-16T04:57:06;14.20;99.90
24664;DHT22;12791;50.992;13.788;2022-10-16T04:59:33;14.10;99.90
24664;DHT22;12791;50.992;13.788;2022-10-16T05:02:01;14.10;99.90
24664;DHT22;12791;50.992;13.788;2022-10-16T05:04:27;14.10;99.90
24664;DHT22;12791;50.992;13.788;2022-10-16T05:06:54;14.10;99.90
24664;DHT22;12791;50.992;13.788;2022-10-16T05:09:21;14.00;99.90
24664;DHT22;12791;50.992;13.788;2022-10-16T05:11:48;14.00;99.90
24664;DHT22;12791;50.992;13.788;2022-10-16T05:14:14;14.10;99.90
24664;DHT22;12791;50.992;13.788;2022-10-16T05:16:41;14.00;99.90
24664;DHT22;12791;50.992;13.788;2022-10-16T05:19:09;14.00;99.90
24664;DHT22;12791;50.992;13.788;2022-10-16T05:21:36;14.00;99.90
24664;DHT22;12791;50.992;13.788;2022-10-16T05:24:03;14.10;99.90
24664;DHT22;12791;50.992;13.788;2022-10-16T05:26:29;14.10;99.90
24664;DHT22;12791;50.992;13.788;2022-10-16T05:28:56;14.10;99.90
24664;DHT22;12791;50.992;13.788;2022-10-16T05:31:23;14.10;99.90
24664;DHT22;12791;50.992;13.788;2022-10-16T05:33:49;14.10;99.90
24664;DHT22;12791;50.992;13.788;2022-10-16T05:36:17;14.10;99.90
24664;DHT22;12791;50.992;13.788;2022-10-16T05:38:44;14.10;99.90
24664;DHT22;12791;50.992;13.788;2022-10-16T05:41:11;14.10;99.90
24664;DHT22;12791;50.992;13.788;2022-10-16T05:43:38;14.10;99.90
24664;DHT22;12791;50.992;13.788;2022-10-16T05:46:05;14.10;99.90
24664;DHT22;12791;50.992;13.788;2022-10-16T05:48:32;14.10;99.90
24664;DHT22;12791;50.992;13.788;2022-10-16T05:50:59;14.10;99.90
24664;DHT22;12791;50.992;13.788;2022-10-16T05:53:29;14.10;99.90
24664;DHT22;12791;50.992;13.788;2022-10-16T05:55:56;14.10;99.90
24664;DHT22;12791;50.992;13.788;2022-10-16T05:58:24;14.10;99.90
24664;DHT22;12791;50.992;13.788;2022-10-16T06:00:54;14.10;99.90
24664;DHT22;12791;50.992;13.788;2022-10-16T06:03:22;14.10;99.90
24664;DHT22;12791;50.992;13.788;2022-10-16T06:05:48;14.20;99.90
24664;DHT22;12791;50.992;13.788;2022-10-16T06:08:15;14.20;99.90
24664;DHT22;12791;50.992;13.788;2022-10-16T06:10:44;14.20;99.90
24664;DHT22;12791;50.992;13.788;2022-10-16T06:13:11;14.20;99.90
24664;DHT22;12791;50.992;13.788;2022-10-16T06:15:38;14.00;99.90
24664;DHT22;12791;50.992;13.788;2022-10-16T06:18:07;14.20;99.90
24664;DHT22;12791;50.992;13.788;2022-10-16T06:20:33;14.30;99.90
24664;DHT22;12791;50.992;13.788;2022-10-16T06:23:00;14.30;99.90
24664;DHT22;12791;50.992;13.788;2022-10-16T06:25:27;14.30;99.90
24664;DHT22;12791;50.992;13.788;2022-10-16T06:27:55;14.40;99.90
24664;DHT22;12791;50.992;13.788;2022-10-16T06:30:22;14.40;99.90
24664;DHT22;12791;50.992;13.788;2022-10-16T06:32:48;14.40;99.90
24664;DHT22;12791;50.992;13.788;2022-10-16T06:35:15;14.50;99.90
24664;DHT22;12791;50.992;13.788;2022-10-16T06:37:42;14.50;99.90
24664;DHT22;12791;50.992;13.788;2022-10-16T06:40:08;14.50;99.90
24664;DHT22;12791;50.992;13.788;2022-10-16T06:42:35;14.60;99.90
24664;DHT22;12791;50.992;13.788;2022-10-16T06:45:04;14.60;99.90
24664;DHT22;12791;50.992;13.788;2022-10-16T06:47:31;14.70;99.90
24664;DHT22;12791;50.992;13.788;2022-10-16T06:49:57;14.70;99.90
24664;DHT22;12791;50.992;13.788;2022-10-16T06:52:24;14.70;99.90
24664;DHT22;12791;50.992;13.788;2022-10-16T06:54:51;14.80;99.90
24664;DHT22;12791;50.992;13.788;2022-10-16T06:57:17;14.80;99.90
24664;DHT22;12791;50.992;13.788;2022-10-16T06:59:44;14.90;99.90
24664;DHT22;12791;50.992;13.788;2022-10-16T07:02:12;14.90;99.90
24664;DHT22;12791;50.992;13.788;2022-10-16T07:04:39;15.00;99.90
24664;DHT22;12791;50.992;13.788;2022-10-16T07:07:06;15.00;99.90
24664;DHT22;12791;50.992;13.788;2022-10-16T07:09:32;15.00;99.90
24664;DHT22;12791;50.992;13.788;2022-10-16T07:11:59;15.00;99.90
24664;DHT22;12791;50.992;13.788;2022-10-16T07:14:26;15.10;99.90
24664;DHT22;12791;50.992;13.788;2022-10-16T07:16:53;15.10;99.90
24664;DHT22;12791;50.992;13.788;2022-10-16T07:19:21;15.10;99.90
24664;DHT22;12791;50.992;13.788;2022-10-16T07:21:48;15.10;99.90
24664;DHT22;12791;50.992;13.788;2022-10-16T07:24:15;15.20;99.90
24664;DHT22;12791;50.992;13.788;2022-10-16T07:26:44;15.20;99.90
24664;DHT22;12791;50.992;13.788;2022-10-16T07:29:12;15.20;99.90
24664;DHT22;12791;50.992;13.788;2022-10-16T07:31:40;15.20;99.90
24664;DHT22;12791;50.992;13.788;2022-10-16T07:34:07;15.30;99.90
24664;DHT22;12791;50.992;13.788;2022-10-16T07:36:35;15.30;99.90
24664;DHT22;12791;50.992;13.788;2022-10-16T07:39:02;15.40;99.90
24664;DHT22;12791;50.992;13.788;2022-10-16T07:41:28;15.40;99.90
24664;DHT22;12791;50.992;13.788;2022-10-16T07:43:56;15.40;99.90
24664;DHT22;12791;50.992;13.788;2022-10-16T07:46:25;15.40;99.90
24664;DHT22;12791;50.992;13.788;2022-10-16T07:48:52;15.50;99.90
24664;DHT22;12791;50.992;13.788;2022-10-16T07:51:21;15.50;99.90
24664;DHT22;12791;50.992;13.788;2022-10-16T07:53:50;15.60;99.90
24664;DHT22;12791;50.992;13.788;2022-10-16T07:56:17;15.60;99.90
24664;DHT22;12791;50.992;13.788;2022-10-16T07:58:45;15.60;99.90
24664;DHT22;12791;50.992;13.788;2022-10-16T08:01:14;15.70;99.90
24664;DHT22;12791;50.992;13.788;2022-10-16T08:03:45;15.70;99.90
24664;DHT22;12791;50.992;13.788;2022-10-16T08:06:11;15.70;99.90
24664;DHT22;12791;50.992;13.788;2022-10-16T08:08:38;15.70;99.90
24664;DHT22;12791;50.992;13.788;2022-10-16T08:11:06;15.80;99.90
24664;DHT22;12791;50.992;13.788;2022-10-16T08:13:33;15.80;99.90
24664;DHT22;12791;50.992;13.788;2022-10-16T08:16:00;15.90;99.90
24664;DHT22;12791;50.992;13.788;2022-10-16T08:18:29;15.90;99.90
24664;DHT22;12791;50.992;13.788;2022-10-16T08:20:56;15.90;99.90
24664;DHT22;12791;50.992;13.788;2022-10-16T08:23:23;16.00;99.90
24664;DHT22;12791;50.992;13.788;2022-10-16T08:25:51;16.00;99.90
24664;DHT22;12791;50.992;13.788;2022-10-16T08:28:20;16.10;99.90
24664;DHT22;12791;50.992;13.788;2022-10-16T08:30:46;16.10;99.90
24664;DHT22;12791;50.992;13.788;2022-10-16T08:33:13;16.10;99.90
24664;DHT22;12791;50.992;13.788;2022-10-16T08:35:40;16.10;99.90
24664;DHT22;12791;50.992;13.788;2022-10-16T08:38:07;16.20;99.90
24664;DHT22;12791;50.992;13.788;2022-10-16T08:40:36;16.30;99.90
24664;DHT22;12791;50.992;13.788;2022-10-16T08:43:24;16.30;99.90
24664;DHT22;12791;50.992;13.788;2022-10-16T08:46:05;16.30;99.90
24664;DHT22;12791;50.992;13.788;2022-10-16T08:48:39;16.40;99.90
24664;DHT22;12791;50.992;13.788;2022-10-16T08:51:10;16.50;99.90
24664;DHT22;12791;50.992;13.788;2022-10-16T08:53:43;16.50;99.90
24664;DHT22;12791;50.992;13.788;2022-10-16T08:56:11;16.60;99.90
24664;DHT22;12791;50.992;13.788;2022-10-16T08:58:39;16.60;99.90
24664;DHT22;12791;50.992;13.788;2022-10-16T09:01:12;16.70;99.90
24664;DHT22;12791;50.992;13.788;2022-10-16T09:03:53;16.70;99.90
24664;DHT22;12791;50.992;13.788;2022-10-16T09:06:27;16.70;99.90
24664;DHT22;12791;50.992;13.788;2022-10-16T09:09:00;16.60;99.90
24664;DHT22;12791;50.992;13.788;2022-10-16T09:11:36;16.80;99.90
24664;DHT22;12791;50.992;13.788;2022-10-16T09:14:17;16.70;99.90
24664;DHT22;12791;50.992;13.788;2022-10-16T09:16:52;16.80;99.90
24664;DHT22;12791;50.992;13.788;2022-10-16T09:19:24;16.80;99.90
24664;DHT22;12791;50.992;13.788;2022-10-16T09:21:53;16.90;99.90
24664;DHT22;12791;50.992;13.788;2022-10-16T09:24:21;16.90;99.90
24664;DHT22;12791;50.992;13.788;2022-10-16T09:26:50;16.90;99.90
24664;DHT22;12791;50.992;13.788;2022-10-16T09:29:19;16.90;99.90
24664;DHT22;12791;50.992;13.788;2022-10-16T09:31:47;16.90;99.90
24664;DHT22;12791;50.992;13.788;2022-10-16T09:34:27;17.00;99.90
24664;DHT22;12791;50.992;13.788;2022-10-16T09:36:56;17.00;99.90
24664;DHT22;12791;50.992;13.788;2022-10-16T09:39:24;17.10;99.90
24664;DHT22;12791;50.992;13.788;2022-10-16T09:41:51;17.20;99.90
24664;DHT22;12791;50.992;13.788;2022-10-16T09:44:23;17.30;99.90
24664;DHT22;12791;50.992;13.788;2022-10-16T09:47:01;17.30;99.90
24664;DHT22;12791;50.992;13.788;2022-10-16T09:49:28;17.40;99.90
24664;DHT22;12791;50.992;13.788;2022-10-16T09:52:03;17.50;99.90
24664;DHT22;12791;50.992;13.788;2022-10-16T09:54:30;17.60;99.90
24664;DHT22;12791;50.992;13.788;2022-10-16T09:57:04;17.70;99.90
24664;DHT22;12791;50.992;13.788;2022-10-16T09:59:33;17.80;99.90
24664;DHT22;12791;50.992;13.788;2022-10-16T10:02:02;17.90;99.90
24664;DHT22;12791;50.992;13.788;2022-10-16T10:04:39;18.00;99.90
24664;DHT22;12791;50.992;13.788;2022-10-16T10:07:17;18.10;99.90
24664;DHT22;12791;50.992;13.788;2022-10-16T10:09:45;18.20;99.90
24664;DHT22;12791;50.992;13.788;2022-10-16T10:12:20;18.10;99.90
24664;DHT22;12791;50.992;13.788;2022-10-16T10:14:50;18.10;99.90
24664;DHT22;12791;50.992;13.788;2022-10-16T10:17:19;18.20;99.90
24664;DHT22;12791;50.992;13.788;2022-10-16T10:19:52;18.10;99.90
24664;DHT22;12791;50.992;13.788;2022-10-16T10:22:23;18.10;99.90
24664;DHT22;12791;50.992;13.788;2022-10-16T10:24:59;18.10;99.90
24664;DHT22;12791;50.992;13.788;2022-10-16T10:27:34;18.10;99.90
24664;DHT22;12791;50.992;13.788;2022-10-16T10:30:10;18.10;99.90
24664;DHT22;12791;50.992;13.788;2022-10-16T10:32:49;18.20;99.90
24664;DHT22;12791;50.992;13.788;2022-10-16T10:35:24;18.20;99.90
24664;DHT22;12791;50.992;13.788;2022-10-16T10:38:07;18.20;99.90
24664;DHT22;12791;50.992;13.788;2022-10-16T10:40:45;18.30;99.90
24664;DHT22;12791;50.992;13.788;2022-10-16T10:43:24;18.40;99.90
24664;DHT22;12791;50.992;13.788;2022-10-16T10:46:00;18.50;99.90
24664;DHT22;12791;50.992;13.788;2022-10-16T10:48:45;18.50;99.90
24664;DHT22;12791;50.992;13.788;2022-10-16T10:51:19;18.60;99.90
24664;DHT22;12791;50.992;13.788;2022-10-16T10:53:55;18.60;99.90
24664;DHT22;12791;50.992;13.788;2022-10-16T10:56:41;18.70;99.90
24664;DHT22;12791;50.992;13.788;2022-10-16T10:59:28;18.80;99.90
24664;DHT22;12791;50.992;13.788;2022-10-16T11:02:04;18.90;99.90
24664;DHT22;12791;50.992;13.788;2022-10-16T11:04:49;18.90;99.90
24664;DHT22;12791;50.992;13.788;2022-10-16T11:07:23;19.00;99.90
24664;DHT22;12791;50.992;13.788;2022-10-16T11:09:53;19.10;99.90
24664;DHT22;12791;50.992;13.788;2022-10-16T11:12:24;19.10;99.90
24664;DHT22;12791;50.992;13.788;2022-10-16T11:14:57;19.10;99.90
24664;DHT22;12791;50.992;13.788;2022-10-16T11:17:29;19.20;99.90
24664;DHT22;12791;50.992;13.788;2022-10-16T11:20:02;19.20;99.90
24664;DHT22;12791;50.992;13.788;2022-10-16T11:22:35;19.20;99.90
24664;DHT22;12791;50.992;13.788;2022-10-16T11:25:13;19.20;99.90
24664;DHT22;12791;50.992;13.788;2022-10-16T11:27:43;19.20;99.90
24664;DHT22;12791;50.992;13.788;2022-10-16T11:30:16;19.20;99.90
24664;DHT22;12791;50.992;13.788;2022-10-16T11:32:56;19.30;99.90
24664;DHT22;12791;50.992;13.788;2022-10-16T11:35:36;19.30;99.90
24664;DHT22;12791;50.992;13.788;2022-10-16T11:38:10;19.40;99.90
24664;DHT22;12791;50.992;13.788;2022-10-16T11:40:41;19.40;99.90
24664;DHT22;12791;50.992;13.788;2022-10-16T11:43:13;19.50;99.90
24664;DHT22;12791;50.992;13.788;2022-10-16T11:45:43;19.50;99.90
24664;DHT22;12791;50.992;13.788;2022-10-16T11:48:20;19.50;99.90
24664;DHT22;12791;50.992;13.788;2022-10-16T11:50:51;19.50;99.90
24664;DHT22;12791;50.992;13.788;2022-10-16T11:53:27;19.50;99.90
24664;DHT22;12791;50.992;13.788;2022-10-16T11:55:58;19.50;99.90
24664;DHT22;12791;50.992;13.788;2022-10-16T11:58:28;19.50;99.90
24664;DHT22;12791;50.992;13.788;2022-10-16T12:00:59;19.60;99.90
24664;DHT22;12791;50.992;13.788;2022-10-16T12:03:30;19.60;99.90
24664;DHT22;12791;50.992;13.788;2022-10-16T12:06:12;19.60;99.90
24664;DHT22;12791;50.992;13.788;2022-10-16T12:08:40;19.50;99.90
24664;DHT22;12791;50.992;13.788;2022-10-16T12:11:09;19.60;99.90
24664;DHT22;12791;50.992;13.788;2022-10-16T12:13:38;19.60;99.90
24664;DHT22;12791;50.992;13.788;2022-10-16T12:16:07;19.70;99.90
24664;DHT22;12791;50.992;13.788;2022-10-16T12:18:48;19.70;99.90
24664;DHT22;12791;50.992;13.788;2022-10-16T12:21:16;19.80;99.90
24664;DHT22;12791;50.992;13.788;2022-10-16T12:23:49;19.80;99.90
24664;DHT22;12791;50.992;13.788;2022-10-16T12:26:24;19.80;99.90
24664;DHT22;12791;50.992;13.788;2022-10-16T12:28:51;19.80;99.90
24664;DHT22;12791;50.992;13.788;2022-10-16T12:31:18;19.80;99.90
24664;DHT22;12791;50.992;13.788;2022-10-16T12:33:57;19.80;99.90
24664;DHT22;12791;50.992;13.788;2022-10-16T12:36:29;19.80;99.90
24664;DHT22;12791;50.992;13.788;2022-10-16T12:38:56;19.80;99.90
24664;DHT22;12791;50.992;13.788;2022-10-16T12:41:27;19.80;99.90
24664;DHT22;12791;50.992;13.788;2022-10-16T12:43:55;19.80;99.90
24664;DHT22;12791;50.992;13.788;2022-10-16T12:46:35;19.80;99.90
24664;DHT22;12791;50.992;13.788;2022-10-16T12:49:29;19.80;99.90
24664;DHT22;12791;50.992;13.788;2022-10-16T12:51:56;19.90;99.90
24664;DHT22;12791;50.992;13.788;2022-10-16T12:54:27;20.00;99.90
24664;DHT22;12791;50.992;13.788;2022-10-16T12:57:09;20.10;99.90
24664;DHT22;12791;50.992;13.788;2022-10-16T12:59:44;20.10;99.90
24664;DHT22;12791;50.992;13.788;2022-10-16T13:05:23;20.20;99.90
24664;DHT22;12791;50.992;13.788;2022-10-16T13:08:00;20.20;99.90
24664;DHT22;12791;50.992;13.788;2022-10-16T13:10:34;20.20;99.90
24664;DHT22;12791;50.992;13.788;2022-10-16T13:13:12;20.20;99.90
24664;DHT22;12791;50.992;13.788;2022-10-16T13:15:55;20.30;99.90
24664;DHT22;12791;50.992;13.788;2022-10-16T13:18:28;20.30;99.90
24664;DHT22;12791;50.992;13.788;2022-10-16T13:21:08;20.30;99.90
24664;DHT22;12791;50.992;13.788;2022-10-16T13:23:42;20.40;99.90
24664;DHT22;12791;50.992;13.788;2022-10-16T13:26:20;20.40;99.90
24664;DHT22;12791;50.992;13.788;2022-10-16T13:28:48;20.30;99.90
24664;DHT22;12791;50.992;13.788;2022-10-16T13:31:19;20.30;99.90
24664;DHT22;12791;50.992;13.788;2022-10-16T13:33:48;20.30;99.90
24664;DHT22;12791;50.992;13.788;2022-10-16T13:36:21;20.30;99.90
24664;DHT22;12791;50.992;13.788;2022-10-16T13:38:48;20.30;99.90
24664;DHT22;12791;50.992;13.788;2022-10-16T13:41:17;20.30;99.90
24664;DHT22;12791;50.992;13.788;2022-10-16T13:43:48;20.30;99.90
24664;DHT22;12791;50.992;13.788;2022-10-16T13:46:17;20.30;99.90
24664;DHT22;12791;50.992;13.788;2022-10-16T13:48:44;20.20;99.90
24664;DHT22;12791;50.992;13.788;2022-10-16T13:51:13;20.30;99.90
24664;DHT22;12791;50.992;13.788;2022-10-16T13:53:42;20.20;99.90
24664;DHT22;12791;50.992;13.788;2022-10-16T13:56:11;20.20;99.90
24664;DHT22;12791;50.992;13.788;2022-10-16T13:58:38;20.20;99.90
24664;DHT22;12791;50.992;13.788;2022-10-16T14:01:17;20.20;99.90
24664;DHT22;12791;50.992;13.788;2022-10-16T14:03:45;20.30;99.90
24664;DHT22;12791;50.992;13.788;2022-10-16T14:06:14;20.30;99.90
24664;DHT22;12791;50.992;13.788;2022-10-16T14:08:46;20.30;99.90
24664;DHT22;12791;50.992;13.788;2022-10-16T14:11:20;20.30;99.90
24664;DHT22;12791;50.992;13.788;2022-10-16T14:13:49;20.30;99.90
24664;DHT22;12791;50.992;13.788;2022-10-16T14:16:18;20.30;99.90
24664;DHT22;12791;50.992;13.788;2022-10-16T14:18:50;20.30;99.90
24664;DHT22;12791;50.992;13.788;2022-10-16T14:21:20;20.20;99.90
24664;DHT22;12791;50.992;13.788;2022-10-16T14:23:48;20.20;99.90
24664;DHT22;12791;50.992;13.788;2022-10-16T14:26:18;20.20;99.90
24664;DHT22;12791;50.992;13.788;2022-10-16T14:28:46;20.20;99.90
24664;DHT22;12791;50.992;13.788;2022-10-16T14:31:26;20.10;99.90
24664;DHT22;12791;50.992;13.788;2022-10-16T14:33:53;20.10;99.90
24664;DHT22;12791;50.992;13.788;2022-10-16T14:36:20;20.10;99.90
24664;DHT22;12791;50.992;13.788;2022-10-16T14:38:56;20.10;99.90
24664;DHT22;12791;50.992;13.788;2022-10-16T14:41:23;20.00;99.90
24664;DHT22;12791;50.992;13.788;2022-10-16T14:43:52;20.00;99.90
24664;DHT22;12791;50.992;13.788;2022-10-16T14:46:21;20.00;99.90
24664;DHT22;12791;50.992;13.788;2022-10-16T14:48:53;20.00;99.90
24664;DHT22;12791;50.992;13.788;2022-10-16T14:51:23;19.90;99.90
24664;DHT22;12791;50.992;13.788;2022-10-16T14:53:52;19.90;99.90
24664;DHT22;12791;50.992;13.788;2022-10-16T14:56:20;19.90;99.90
24664;DHT22;12791;50.992;13.788;2022-10-16T14:58:47;19.80;99.90
24664;DHT22;12791;50.992;13.788;2022-10-16T15:01:14;19.80;99.90
24664;DHT22;12791;50.992;13.788;2022-10-16T15:03:41;19.80;99.90
24664;DHT22;12791;50.992;13.788;2022-10-16T15:06:09;19.70;99.90
24664;DHT22;12791;50.992;13.788;2022-10-16T15:08:36;19.70;99.90
24664;DHT22;12791;50.992;13.788;2022-10-16T15:11:05;19.70;99.90
24664;DHT22;12791;50.992;13.788;2022-10-16T15:13:32;19.70;99.90
24664;DHT22;12791;50.992;13.788;2022-10-16T15:15:59;19.60;99.90
24664;DHT22;12791;50.992;13.788;2022-10-16T15:18:26;19.60;99.90
24664;DHT22;12791;50.992;13.788;2022-10-16T15:20:52;19.60;99.90
24664;DHT22;12791;50.992;13.788;2022-10-16T15:23:22;19.60;99.90
24664;DHT22;12791;50.992;13.788;2022-10-16T15:25:50;19.50;99.90
24664;DHT22;12791;50.992;13.788;2022-10-16T15:28:19;19.50;99.90
24664;DHT22;12791;50.992;13.788;2022-10-16T15:30:46;19.50;99.90
24664;DHT22;12791;50.992;13.788;2022-10-16T15:33:17;19.50;99.90
24664;DHT22;12791;50.992;13.788;2022-10-16T15:35:46;19.40;99.90
24664;DHT22;12791;50.992;13.788;2022-10-16T15:38:15;19.40;99.90
24664;DHT22;12791;50.992;13.788;2022-10-16T15:40:42;19.40;99.90
24664;DHT22;12791;50.992;13.788;2022-10-16T15:43:09;19.40;99.90
24664;DHT22;12791;50.992;13.788;2022-10-16T15:45:38;19.30;99.90
24664;DHT22;12791;50.992;13.788;2022-10-16T15:48:05;19.30;99.90
24664;DHT22;12791;50.992;13.788;2022-10-16T15:50:32;19.20;99.90
24664;DHT22;12791;50.992;13.788;2022-10-16T15:52:59;19.20;99.90
24664;DHT22;12791;50.992;13.788;2022-10-16T15:55:25;19.10;99.90
24664;DHT22;12791;50.992;13.788;2022-10-16T15:57:52;19.10;99.90
24664;DHT22;12791;50.992;13.788;2022-10-16T16:00:19;19.10;99.90
24664;DHT22;12791;50.992;13.788;2022-10-16T16:02:52;19.10;99.90
24664;DHT22;12791;50.992;13.788;2022-10-16T16:05:20;19.00;99.90
24664;DHT22;12791;50.992;13.788;2022-10-16T16:07:48;18.90;99.90
24664;DHT22;12791;50.992;13.788;2022-10-16T16:10:15;18.80;99.90
24664;DHT22;12791;50.992;13.788;2022-10-16T16:12:41;18.80;99.90
24664;DHT22;12791;50.992;13.788;2022-10-16T16:15:09;18.60;99.90
24664;DHT22;12791;50.992;13.788;2022-10-16T16:17:36;18.60;99.90
24664;DHT22;12791;50.992;13.788;2022-10-16T16:20:06;18.50;99.90
24664;DHT22;12791;50.992;13.788;2022-10-16T16:22:33;18.40;99.90
24664;DHT22;12791;50.992;13.788;2022-10-16T16:24:59;18.30;99.90
24664;DHT22;12791;50.992;13.788;2022-10-16T16:27:26;18.30;99.90
24664;DHT22;12791;50.992;13.788;2022-10-16T16:29:55;18.20;99.90
24664;DHT22;12791;50.992;13.788;2022-10-16T16:32:21;18.00;99.90
24664;DHT22;12791;50.992;13.788;2022-10-16T16:34:48;18.10;99.90
24664;DHT22;12791;50.992;13.788;2022-10-16T16:37:16;18.00;99.90
24664;DHT22;12791;50.992;13.788;2022-10-16T16:39:43;17.90;99.90
24664;DHT22;12791;50.992;13.788;2022-10-16T16:42:10;17.90;99.90
24664;DHT22;12791;50.992;13.788;2022-10-16T16:44:37;17.80;99.90
24664;DHT22;12791;50.992;13.788;2022-10-16T16:47:04;17.70;99.90
24664;DHT22;12791;50.992;13.788;2022-10-16T16:49:31;17.70;99.90
24664;DHT22;12791;50.992;13.788;2022-10-16T16:51:58;17.70;99.90
24664;DHT22;12791;50.992;13.788;2022-10-16T16:54:26;17.60;99.90
24664;DHT22;12791;50.992;13.788;2022-10-16T16:56:53;17.50;99.90
24664;DHT22;12791;50.992;13.788;2022-10-16T16:59:20;17.50;99.90
24664;DHT22;12791;50.992;13.788;2022-10-16T17:01:48;17.40;99.90
24664;DHT22;12791;50.992;13.788;2022-10-16T17:04:15;17.40;99.90
24664;DHT22;12791;50.992;13.788;2022-10-16T17:06:42;17.30;99.90
24664;DHT22;12791;50.992;13.788;2022-10-16T17:09:09;17.30;99.90
24664;DHT22;12791;50.992;13.788;2022-10-16T17:11:39;17.20;99.90
24664;DHT22;12791;50.992;13.788;2022-10-16T17:14:08;17.20;99.90
24664;DHT22;12791;50.992;13.788;2022-10-16T17:16:36;17.20;99.90
24664;DHT22;12791;50.992;13.788;2022-10-16T17:19:06;17.10;99.90
24664;DHT22;12791;50.992;13.788;2022-10-16T17:21:33;17.10;99.90
24664;DHT22;12791;50.992;13.788;2022-10-16T17:24:00;17.10;99.90
24664;DHT22;12791;50.992;13.788;2022-10-16T17:26:27;17.00;99.90
24664;DHT22;12791;50.992;13.788;2022-10-16T17:28:58;17.00;99.90
24664;DHT22;12791;50.992;13.788;2022-10-16T17:31:26;17.00;99.90
24664;DHT22;12791;50.992;13.788;2022-10-16T17:33:53;17.00;99.90
24664;DHT22;12791;50.992;13.788;2022-10-16T17:36:21;17.00;99.90
24664;DHT22;12791;50.992;13.788;2022-10-16T17:38:48;16.90;99.90
24664;DHT22;12791;50.992;13.788;2022-10-16T17:41:16;16.90;99.90
24664;DHT22;12791;50.992;13.788;2022-10-16T17:43:44;16.90;99.90
24664;DHT22;12791;50.992;13.788;2022-10-16T17:46:13;16.90;99.90
24664;DHT22;12791;50.992;13.788;2022-10-16T17:48:42;16.90;99.90
24664;DHT22;12791;50.992;13.788;2022-10-16T17:51:11;16.80;99.90
24664;DHT22;12791;50.992;13.788;2022-10-16T17:53:38;16.80;99.90
24664;DHT22;12791;50.992;13.788;2022-10-16T17:56:06;16.80;99.90
24664;DHT22;12791;50.992;13.788;2022-10-16T17:58:34;16.80;99.90
24664;DHT22;12791;50.992;13.788;2022-10-16T18:01:03;16.80;99.90
24664;DHT22;12791;50.992;13.788;2022-10-16T18:03:38;16.70;99.90
24664;DHT22;12791;50.992;13.788;2022-10-16T18:06:04;16.80;99.90
24664;DHT22;12791;50.992;13.788;2022-10-16T18:08:31;16.70;99.90
24664;DHT22;12791;50.992;13.788;2022-10-16T18:11:01;16.70;99.90
24664;DHT22;12791;50.992;13.788;2022-10-16T18:13:28;16.60;99.90
24664;DHT22;12791;50.992;13.788;2022-10-16T18:15:59;16.60;99.90
24664;DHT22;12791;50.992;13.788;2022-10-16T18:18:26;16.50;99.90
24664;DHT22;12791;50.992;13.788;2022-10-16T18:20:57;16.50;99.90
24664;DHT22;12791;50.992;13.788;2022-10-16T18:23:23;16.50;99.90
24664;DHT22;12791;50.992;13.788;2022-10-16T18:25:50;16.50;99.90
24664;DHT22;12791;50.992;13.788;2022-10-16T18:28:17;16.50;99.90
24664;DHT22;12791;50.992;13.788;2022-10-16T18:30:44;16.40;99.90
24664;DHT22;12791;50.992;13.788;2022-10-16T18:33:11;16.40;99.90